sensor_id;sensor_type;location;lat;lon;timestamp;P1;durP1;ratioP1;P2;durP2;ratioP2
66585;SDS011;53444;45.822;16.092;2022-11-15T00:00:45;51.55;;;17.75;;
66585;SDS011;53444;45.822;16.092;2022-11-15T00:03:12;52.70;;;18.58;;
66585;SDS011;53444;45.822;16.092;2022-11-15T00:05:40;45.45;;;16.50;;
66585;SDS011;53444;45.822;16.092;2022-11-15T00:08:08;47.63;;;18.30;;
66585;SDS011;53444;45.822;16.092;2022-11-15T00:10:34;49.97;;;18.60;;
66585;SDS011;53444;45.822;16.092;2022-11-15T00:13:04;54.05;;;18.90;;
66585;SDS011;53444;45.822;16.092;2022-11-15T00:15:31;44.17;;;16.63;;
66585;SDS011;53444;45.822;16.092;2022-11-15T00:17:57;43.67;;;17.38;;
66585;SDS011;53444;45.822;16.092;2022-11-15T00:20:24;48.60;;;17.20;;
66585;SDS011;53444;45.822;16.092;2022-11-15T00:22:51;44.90;;;17.63;;
66585;SDS011;53444;45.822;16.092;2022-11-15T00:25:18;53.35;;;18.02;;
66585;SDS011;53444;45.822;16.092;2022-11-15T00:27:45;45.30;;;16.55;;
66585;SDS011;53444;45.822;16.092;2022-11-15T00:30:12;45.65;;;17.00;;
66585;SDS011;53444;45.822;16.092;2022-11-15T00:32:39;45.30;;;17.02;;
66585;SDS011;53444;45.822;16.092;2022-11-15T00:35:06;42.90;;;16.13;;
66585;SDS011;53444;45.822;16.092;2022-11-15T00:37:33;51.47;;;17.08;;
66585;SDS011;53444;45.822;16.092;2022-11-15T00:39:59;40.63;;;15.85;;
66585;SDS011;53444;45.822;16.092;2022-11-15T00:42:27;43.17;;;15.65;;
66585;SDS011;53444;45.822;16.092;2022-11-15T00:44:54;41.37;;;16.10;;
66585;SDS011;53444;45.822;16.092;2022-11-15T00:47:20;40.83;;;15.77;;
66585;SDS011;53444;45.822;16.092;2022-11-15T00:49:47;43.63;;;17.00;;
66585;SDS011;53444;45.822;16.092;2022-11-15T00:52:13;48.88;;;16.63;;
66585;SDS011;53444;45.822;16.092;2022-11-15T00:54:40;41.28;;;15.95;;
66585;SDS011;53444;45.822;16.092;2022-11-15T00:57:06;47.77;;;17.17;;
66585;SDS011;53444;45.822;16.092;2022-11-15T00:59:34;46.17;;;15.52;;
66585;SDS011;53444;45.822;16.092;2022-11-15T01:02:01;43.17;;;15.93;;
66585;SDS011;53444;45.822;16.092;2022-11-15T01:04:28;42.45;;;15.43;;
66585;SDS011;53444;45.822;16.092;2022-11-15T01:06:54;44.10;;;16.55;;
66585;SDS011;53444;45.822;16.092;2022-11-15T01:09:21;37.37;;;15.43;;
66585;SDS011;53444;45.822;16.092;2022-11-15T01:11:48;42.35;;;15.40;;
66585;SDS011;53444;45.822;16.092;2022-11-15T01:14:14;44.78;;;15.27;;
66585;SDS011;53444;45.822;16.092;2022-11-15T01:16:42;37.38;;;15.73;;
66585;SDS011;53444;45.822;16.092;2022-11-15T01:19:09;36.33;;;14.60;;
66585;SDS011;53444;45.822;16.092;2022-11-15T01:21:36;42.43;;;14.60;;
66585;SDS011;53444;45.822;16.092;2022-11-15T01:24:03;34.22;;;14.32;;
66585;SDS011;53444;45.822;16.092;2022-11-15T01:26:30;37.08;;;13.85;;
66585;SDS011;53444;45.822;16.092;2022-11-15T01:28:56;36.00;;;14.27;;
66585;SDS011;53444;45.822;16.092;2022-11-15T01:31:23;35.30;;;14.93;;
66585;SDS011;53444;45.822;16.092;2022-11-15T01:33:51;34.60;;;14.27;;
66585;SDS011;53444;45.822;16.092;2022-11-15T01:36:18;33.70;;;14.90;;
66585;SDS011;53444;45.822;16.092;2022-11-15T01:38:47;30.45;;;13.52;;
66585;SDS011;53444;45.822;16.092;2022-11-15T01:41:20;35.65;;;13.88;;
66585;SDS011;53444;45.822;16.092;2022-11-15T01:43:49;36.22;;;13.63;;
66585;SDS011;53444;45.822;16.092;2022-11-15T01:46:22;32.55;;;12.88;;
66585;SDS011;53444;45.822;16.092;2022-11-15T01:48:53;31.58;;;13.77;;
66585;SDS011;53444;45.822;16.092;2022-11-15T01:51:21;35.85;;;13.25;;
66585;SDS011;53444;45.822;16.092;2022-11-15T01:53:52;32.92;;;12.98;;
66585;SDS011;53444;45.822;16.092;2022-11-15T01:56:27;34.63;;;12.95;;
66585;SDS011;53444;45.822;16.092;2022-11-15T01:58:56;36.70;;;14.20;;
66585;SDS011;53444;45.822;16.092;2022-11-15T02:01:26;35.30;;;13.13;;
66585;SDS011;53444;45.822;16.092;2022-11-15T02:03:56;32.80;;;13.82;;
66585;SDS011;53444;45.822;16.092;2022-11-15T02:06:26;36.88;;;14.18;;
66585;SDS011;53444;45.822;16.092;2022-11-15T02:08:53;36.83;;;14.02;;
66585;SDS011;53444;45.822;16.092;2022-11-15T02:11:22;32.88;;;13.30;;
66585;SDS011;53444;45.822;16.092;2022-11-15T02:13:48;32.92;;;13.55;;
66585;SDS011;53444;45.822;16.092;2022-11-15T02:16:16;40.03;;;13.50;;
66585;SDS011;53444;45.822;16.092;2022-11-15T02:18:57;40.15;;;14.40;;
66585;SDS011;53444;45.822;16.092;2022-11-15T02:21:28;38.33;;;15.43;;
66585;SDS011;53444;45.822;16.092;2022-11-15T02:24:10;38.05;;;13.90;;
66585;SDS011;53444;45.822;16.092;2022-11-15T02:26:59;36.58;;;13.90;;
66585;SDS011;53444;45.822;16.092;2022-11-15T02:29:53;37.13;;;14.13;;
66585;SDS011;53444;45.822;16.092;2022-11-15T02:32:32;36.10;;;13.77;;
66585;SDS011;53444;45.822;16.092;2022-11-15T02:35:09;35.50;;;13.55;;
66585;SDS011;53444;45.822;16.092;2022-11-15T02:37:43;39.73;;;14.17;;
66585;SDS011;53444;45.822;16.092;2022-11-15T02:40:16;44.15;;;13.93;;
66585;SDS011;53444;45.822;16.092;2022-11-15T02:42:53;39.45;;;13.85;;
66585;SDS011;53444;45.822;16.092;2022-11-15T02:45:39;37.17;;;14.50;;
66585;SDS011;53444;45.822;16.092;2022-11-15T02:48:11;43.63;;;15.45;;
66585;SDS011;53444;45.822;16.092;2022-11-15T02:50:38;52.00;;;14.80;;
66585;SDS011;53444;45.822;16.092;2022-11-15T02:53:05;37.22;;;13.75;;
66585;SDS011;53444;45.822;16.092;2022-11-15T02:55:33;39.72;;;14.23;;
66585;SDS011;53444;45.822;16.092;2022-11-15T02:58:10;46.88;;;14.93;;
66585;SDS011;53444;45.822;16.092;2022-11-15T03:00:49;38.25;;;13.75;;
66585;SDS011;53444;45.822;16.092;2022-11-15T03:03:26;35.85;;;13.02;;
66585;SDS011;53444;45.822;16.092;2022-11-15T03:06:05;36.63;;;13.52;;
66585;SDS011;53444;45.822;16.092;2022-11-15T03:08:44;41.33;;;13.80;;
66585;SDS011;53444;45.822;16.092;2022-11-15T03:11:21;36.83;;;12.88;;
66585;SDS011;53444;45.822;16.092;2022-11-15T03:13:50;39.75;;;14.02;;
66585;SDS011;53444;45.822;16.092;2022-11-15T03:16:24;39.20;;;13.67;;
66585;SDS011;53444;45.822;16.092;2022-11-15T03:18:57;50.25;;;15.98;;
66585;SDS011;53444;45.822;16.092;2022-11-15T03:21:28;49.55;;;15.70;;
66585;SDS011;53444;45.822;16.092;2022-11-15T03:23:56;47.92;;;13.73;;
66585;SDS011;53444;45.822;16.092;2022-11-15T03:26:29;41.75;;;14.63;;
66585;SDS011;53444;45.822;16.092;2022-11-15T03:28:58;40.80;;;14.38;;
66585;SDS011;53444;45.822;16.092;2022-11-15T03:31:30;41.78;;;14.95;;
66585;SDS011;53444;45.822;16.092;2022-11-15T03:34:19;40.58;;;14.02;;
66585;SDS011;53444;45.822;16.092;2022-11-15T03:36:49;48.63;;;15.43;;
66585;SDS011;53444;45.822;16.092;2022-11-15T03:39:18;40.90;;;14.98;;
66585;SDS011;53444;45.822;16.092;2022-11-15T03:41:47;42.87;;;14.20;;
66585;SDS011;53444;45.822;16.092;2022-11-15T03:44:20;39.53;;;14.48;;
66585;SDS011;53444;45.822;16.092;2022-11-15T03:46:57;41.80;;;13.68;;
66585;SDS011;53444;45.822;16.092;2022-11-15T03:49:31;40.55;;;13.07;;
66585;SDS011;53444;45.822;16.092;2022-11-15T03:52:00;33.70;;;13.68;;
66585;SDS011;53444;45.822;16.092;2022-11-15T03:54:29;40.57;;;13.77;;
66585;SDS011;53444;45.822;16.092;2022-11-15T03:56:56;38.75;;;14.02;;
66585;SDS011;53444;45.822;16.092;2022-11-15T03:59:23;38.83;;;15.10;;
66585;SDS011;53444;45.822;16.092;2022-11-15T04:01:50;45.28;;;15.25;;
66585;SDS011;53444;45.822;16.092;2022-11-15T04:04:16;43.97;;;15.45;;
66585;SDS011;53444;45.822;16.092;2022-11-15T04:06:44;41.95;;;17.45;;
66585;SDS011;53444;45.822;16.092;2022-11-15T04:09:11;33.97;;;13.65;;
66585;SDS011;53444;45.822;16.092;2022-11-15T04:11:37;34.53;;;13.45;;
66585;SDS011;53444;45.822;16.092;2022-11-15T04:14:04;30.23;;;13.40;;
66585;SDS011;53444;45.822;16.092;2022-11-15T04:16:30;38.40;;;14.40;;
66585;SDS011;53444;45.822;16.092;2022-11-15T04:18:57;32.70;;;12.75;;
66585;SDS011;53444;45.822;16.092;2022-11-15T04:21:57;32.55;;;12.95;;
66585;SDS011;53444;45.822;16.092;2022-11-15T04:24:41;32.60;;;12.38;;
66585;SDS011;53444;45.822;16.092;2022-11-15T04:27:08;32.13;;;12.93;;
66585;SDS011;53444;45.822;16.092;2022-11-15T04:29:35;30.55;;;12.60;;
66585;SDS011;53444;45.822;16.092;2022-11-15T04:32:01;29.83;;;12.63;;
66585;SDS011;53444;45.822;16.092;2022-11-15T04:34:29;34.03;;;13.13;;
66585;SDS011;53444;45.822;16.092;2022-11-15T04:36:55;32.97;;;13.80;;
66585;SDS011;53444;45.822;16.092;2022-11-15T04:39:42;32.50;;;14.10;;
66585;SDS011;53444;45.822;16.092;2022-11-15T04:42:09;36.08;;;13.85;;
66585;SDS011;53444;45.822;16.092;2022-11-15T04:44:36;32.22;;;14.05;;
66585;SDS011;53444;45.822;16.092;2022-11-15T04:47:03;32.72;;;13.27;;
66585;SDS011;53444;45.822;16.092;2022-11-15T04:49:30;28.85;;;12.20;;
66585;SDS011;53444;45.822;16.092;2022-11-15T04:51:57;31.33;;;12.45;;
66585;SDS011;53444;45.822;16.092;2022-11-15T04:54:24;31.45;;;11.80;;
66585;SDS011;53444;45.822;16.092;2022-11-15T04:56:52;30.90;;;12.73;;
66585;SDS011;53444;45.822;16.092;2022-11-15T04:59:18;30.95;;;12.82;;
66585;SDS011;53444;45.822;16.092;2022-11-15T05:01:45;35.83;;;15.40;;
66585;SDS011;53444;45.822;16.092;2022-11-15T05:04:11;38.67;;;14.20;;
66585;SDS011;53444;45.822;16.092;2022-11-15T05:06:49;26.75;;;12.52;;
66585;SDS011;53444;45.822;16.092;2022-11-15T05:09:17;26.90;;;12.30;;
66585;SDS011;53444;45.822;16.092;2022-11-15T05:11:43;27.70;;;11.68;;
66585;SDS011;53444;45.822;16.092;2022-11-15T05:14:12;25.42;;;11.77;;
66585;SDS011;53444;45.822;16.092;2022-11-15T05:16:38;31.58;;;12.70;;
66585;SDS011;53444;45.822;16.092;2022-11-15T05:19:06;27.77;;;12.55;;
66585;SDS011;53444;45.822;16.092;2022-11-15T05:21:33;32.05;;;12.90;;
66585;SDS011;53444;45.822;16.092;2022-11-15T05:24:00;28.42;;;12.93;;
66585;SDS011;53444;45.822;16.092;2022-11-15T05:26:27;32.42;;;13.52;;
66585;SDS011;53444;45.822;16.092;2022-11-15T05:28:54;33.33;;;13.48;;
66585;SDS011;53444;45.822;16.092;2022-11-15T05:31:23;33.05;;;13.60;;
66585;SDS011;53444;45.822;16.092;2022-11-15T05:33:50;29.65;;;12.93;;
66585;SDS011;53444;45.822;16.092;2022-11-15T05:36:19;30.10;;;13.02;;
66585;SDS011;53444;45.822;16.092;2022-11-15T05:38:50;30.48;;;13.32;;
66585;SDS011;53444;45.822;16.092;2022-11-15T05:41:17;30.17;;;13.15;;
66585;SDS011;53444;45.822;16.092;2022-11-15T05:43:46;31.52;;;13.10;;
66585;SDS011;53444;45.822;16.092;2022-11-15T05:46:14;29.50;;;11.60;;
66585;SDS011;53444;45.822;16.092;2022-11-15T05:48:44;27.20;;;10.82;;
66585;SDS011;53444;45.822;16.092;2022-11-15T05:51:15;29.83;;;13.07;;
66585;SDS011;53444;45.822;16.092;2022-11-15T05:53:43;28.65;;;12.70;;
66585;SDS011;53444;45.822;16.092;2022-11-15T05:56:11;28.23;;;11.98;;
66585;SDS011;53444;45.822;16.092;2022-11-15T05:58:38;23.88;;;11.73;;
66585;SDS011;53444;45.822;16.092;2022-11-15T06:01:05;28.25;;;11.65;;
66585;SDS011;53444;45.822;16.092;2022-11-15T06:03:31;26.75;;;11.82;;
66585;SDS011;53444;45.822;16.092;2022-11-15T06:05:59;25.92;;;12.07;;
66585;SDS011;53444;45.822;16.092;2022-11-15T06:08:26;29.00;;;12.27;;
66585;SDS011;53444;45.822;16.092;2022-11-15T06:10:53;30.38;;;13.48;;
66585;SDS011;53444;45.822;16.092;2022-11-15T06:13:20;28.75;;;11.98;;
66585;SDS011;53444;45.822;16.092;2022-11-15T06:15:46;27.63;;;12.82;;
66585;SDS011;53444;45.822;16.092;2022-11-15T06:18:13;31.42;;;13.07;;
66585;SDS011;53444;45.822;16.092;2022-11-15T06:20:39;31.23;;;14.25;;
66585;SDS011;53444;45.822;16.092;2022-11-15T06:23:07;28.15;;;12.77;;
66585;SDS011;53444;45.822;16.092;2022-11-15T06:25:34;28.02;;;12.52;;
66585;SDS011;53444;45.822;16.092;2022-11-15T06:28:01;30.85;;;14.05;;
66585;SDS011;53444;45.822;16.092;2022-11-15T06:30:27;39.00;;;15.15;;
66585;SDS011;53444;45.822;16.092;2022-11-15T06:33:00;31.95;;;13.55;;
66585;SDS011;53444;45.822;16.092;2022-11-15T06:35:29;31.33;;;13.52;;
66585;SDS011;53444;45.822;16.092;2022-11-15T06:37:56;37.90;;;13.48;;
66585;SDS011;53444;45.822;16.092;2022-11-15T06:40:30;36.03;;;15.10;;
66585;SDS011;53444;45.822;16.092;2022-11-15T06:42:58;35.03;;;15.20;;
66585;SDS011;53444;45.822;16.092;2022-11-15T06:45:25;26.80;;;12.50;;
66585;SDS011;53444;45.822;16.092;2022-11-15T06:47:52;29.83;;;12.70;;
66585;SDS011;53444;45.822;16.092;2022-11-15T06:50:19;27.85;;;11.50;;
66585;SDS011;53444;45.822;16.092;2022-11-15T06:52:46;28.40;;;12.15;;
66585;SDS011;53444;45.822;16.092;2022-11-15T06:55:12;26.73;;;11.65;;
66585;SDS011;53444;45.822;16.092;2022-11-15T06:57:47;29.15;;;13.10;;
66585;SDS011;53444;45.822;16.092;2022-11-15T07:00:14;25.50;;;12.20;;
66585;SDS011;53444;45.822;16.092;2022-11-15T07:02:42;31.63;;;12.57;;
66585;SDS011;53444;45.822;16.092;2022-11-15T07:05:09;25.98;;;11.82;;
66585;SDS011;53444;45.822;16.092;2022-11-15T07:07:36;29.65;;;12.63;;
66585;SDS011;53444;45.822;16.092;2022-11-15T07:10:03;26.13;;;12.32;;
66585;SDS011;53444;45.822;16.092;2022-11-15T07:12:30;28.55;;;12.25;;
66585;SDS011;53444;45.822;16.092;2022-11-15T07:14:58;29.35;;;13.68;;
66585;SDS011;53444;45.822;16.092;2022-11-15T07:17:24;30.25;;;13.40;;
66585;SDS011;53444;45.822;16.092;2022-11-15T07:19:51;28.65;;;13.82;;
66585;SDS011;53444;45.822;16.092;2022-11-15T07:22:18;31.00;;;13.70;;
66585;SDS011;53444;45.822;16.092;2022-11-15T07:24:44;29.67;;;12.95;;
66585;SDS011;53444;45.822;16.092;2022-11-15T07:27:11;31.08;;;14.45;;
66585;SDS011;53444;45.822;16.092;2022-11-15T07:29:37;33.55;;;14.57;;
66585;SDS011;53444;45.822;16.092;2022-11-15T07:32:05;24.80;;;11.70;;
66585;SDS011;53444;45.822;16.092;2022-11-15T07:34:32;25.65;;;12.20;;
66585;SDS011;53444;45.822;16.092;2022-11-15T07:36:59;24.83;;;11.60;;
66585;SDS011;53444;45.822;16.092;2022-11-15T07:39:25;27.40;;;12.23;;
66585;SDS011;53444;45.822;16.092;2022-11-15T07:41:52;27.52;;;12.57;;
66585;SDS011;53444;45.822;16.092;2022-11-15T07:44:39;31.70;;;13.43;;
66585;SDS011;53444;45.822;16.092;2022-11-15T07:47:07;31.35;;;13.55;;
66585;SDS011;53444;45.822;16.092;2022-11-15T07:49:34;29.55;;;12.75;;
66585;SDS011;53444;45.822;16.092;2022-11-15T07:52:00;29.88;;;12.40;;
66585;SDS011;53444;45.822;16.092;2022-11-15T07:54:27;31.23;;;12.63;;
66585;SDS011;53444;45.822;16.092;2022-11-15T07:56:53;32.47;;;13.75;;
66585;SDS011;53444;45.822;16.092;2022-11-15T07:59:20;28.08;;;11.85;;
66585;SDS011;53444;45.822;16.092;2022-11-15T08:01:46;34.07;;;13.13;;
66585;SDS011;53444;45.822;16.092;2022-11-15T08:04:14;35.05;;;15.13;;
66585;SDS011;53444;45.822;16.092;2022-11-15T08:06:41;30.80;;;13.00;;
66585;SDS011;53444;45.822;16.092;2022-11-15T08:09:07;31.10;;;13.27;;
66585;SDS011;53444;45.822;16.092;2022-11-15T08:11:34;36.45;;;13.27;;
66585;SDS011;53444;45.822;16.092;2022-11-15T08:14:01;28.37;;;12.70;;
66585;SDS011;53444;45.822;16.092;2022-11-15T08:16:27;29.60;;;11.80;;
66585;SDS011;53444;45.822;16.092;2022-11-15T08:18:54;29.33;;;12.40;;
66585;SDS011;53444;45.822;16.092;2022-11-15T08:21:22;32.65;;;12.93;;
66585;SDS011;53444;45.822;16.092;2022-11-15T08:23:49;28.58;;;12.18;;
66585;SDS011;53444;45.822;16.092;2022-11-15T08:26:15;22.40;;;10.40;;
66585;SDS011;53444;45.822;16.092;2022-11-15T08:28:42;25.80;;;10.63;;
66585;SDS011;53444;45.822;16.092;2022-11-15T08:31:11;29.70;;;12.55;;
66585;SDS011;53444;45.822;16.092;2022-11-15T08:33:40;30.95;;;12.93;;
66585;SDS011;53444;45.822;16.092;2022-11-15T08:36:15;32.15;;;13.05;;
66585;SDS011;53444;45.822;16.092;2022-11-15T08:38:44;31.52;;;13.38;;
66585;SDS011;53444;45.822;16.092;2022-11-15T08:41:12;32.80;;;12.02;;
66585;SDS011;53444;45.822;16.092;2022-11-15T08:43:41;31.42;;;11.65;;
66585;SDS011;53444;45.822;16.092;2022-11-15T08:46:08;23.33;;;10.95;;
66585;SDS011;53444;45.822;16.092;2022-11-15T08:48:38;29.13;;;11.20;;
66585;SDS011;53444;45.822;16.092;2022-11-15T08:51:05;20.20;;;9.40;;
66585;SDS011;53444;45.822;16.092;2022-11-15T08:56:01;32.50;;;12.35;;
66585;SDS011;53444;45.822;16.092;2022-11-15T08:58:28;25.63;;;10.70;;
66585;SDS011;53444;45.822;16.092;2022-11-15T09:00:55;25.98;;;11.27;;
66585;SDS011;53444;45.822;16.092;2022-11-15T09:03:21;27.20;;;11.33;;
66585;SDS011;53444;45.822;16.092;2022-11-15T09:05:48;36.72;;;12.85;;
66585;SDS011;53444;45.822;16.092;2022-11-15T09:08:14;40.47;;;14.45;;
66585;SDS011;53444;45.822;16.092;2022-11-15T09:10:41;36.38;;;13.60;;
66585;SDS011;53444;45.822;16.092;2022-11-15T09:13:09;33.33;;;12.23;;
66585;SDS011;53444;45.822;16.092;2022-11-15T09:15:36;32.35;;;13.32;;
66585;SDS011;53444;45.822;16.092;2022-11-15T09:18:02;46.47;;;16.80;;
66585;SDS011;53444;45.822;16.092;2022-11-15T09:20:29;37.53;;;13.60;;
66585;SDS011;53444;45.822;16.092;2022-11-15T09:22:58;34.38;;;12.57;;
66585;SDS011;53444;45.822;16.092;2022-11-15T09:25:25;32.58;;;12.95;;
66585;SDS011;53444;45.822;16.092;2022-11-15T09:27:52;39.17;;;14.77;;
66585;SDS011;53444;45.822;16.092;2022-11-15T09:30:20;36.72;;;15.07;;
66585;SDS011;53444;45.822;16.092;2022-11-15T09:32:47;37.30;;;14.48;;
66585;SDS011;53444;45.822;16.092;2022-11-15T09:35:13;33.40;;;14.07;;
66585;SDS011;53444;45.822;16.092;2022-11-15T09:37:40;36.67;;;14.25;;
66585;SDS011;53444;45.822;16.092;2022-11-15T09:40:08;34.38;;;14.73;;
66585;SDS011;53444;45.822;16.092;2022-11-15T09:42:49;38.38;;;17.33;;
66585;SDS011;53444;45.822;16.092;2022-11-15T09:45:28;36.80;;;16.02;;
66585;SDS011;53444;45.822;16.092;2022-11-15T09:50:58;38.90;;;15.77;;
66585;SDS011;53444;45.822;16.092;2022-11-15T09:53:25;35.37;;;15.10;;
66585;SDS011;53444;45.822;16.092;2022-11-15T09:55:59;32.75;;;13.77;;
66585;SDS011;53444;45.822;16.092;2022-11-15T09:58:30;31.63;;;14.52;;
66585;SDS011;53444;45.822;16.092;2022-11-15T10:01:04;36.35;;;16.75;;
66585;SDS011;53444;45.822;16.092;2022-11-15T10:03:35;34.28;;;15.23;;
66585;SDS011;53444;45.822;16.092;2022-11-15T10:06:08;34.20;;;14.73;;
66585;SDS011;53444;45.822;16.092;2022-11-15T10:08:53;33.65;;;14.68;;
66585;SDS011;53444;45.822;16.092;2022-11-15T10:11:24;37.88;;;15.10;;
66585;SDS011;53444;45.822;16.092;2022-11-15T10:13:54;32.88;;;14.65;;
66585;SDS011;53444;45.822;16.092;2022-11-15T10:16:32;34.60;;;14.32;;
66585;SDS011;53444;45.822;16.092;2022-11-15T10:19:23;35.45;;;13.82;;
66585;SDS011;53444;45.822;16.092;2022-11-15T10:21:56;37.03;;;14.32;;
66585;SDS011;53444;45.822;16.092;2022-11-15T10:24:34;30.85;;;14.15;;
66585;SDS011;53444;45.822;16.092;2022-11-15T10:27:07;31.95;;;15.35;;
66585;SDS011;53444;45.822;16.092;2022-11-15T10:29:36;33.22;;;14.60;;
66585;SDS011;53444;45.822;16.092;2022-11-15T10:32:10;33.73;;;15.47;;
66585;SDS011;53444;45.822;16.092;2022-11-15T10:34:38;41.33;;;18.33;;
66585;SDS011;53444;45.822;16.092;2022-11-15T10:37:04;32.55;;;16.25;;
66585;SDS011;53444;45.822;16.092;2022-11-15T10:39:31;28.25;;;14.73;;
66585;SDS011;53444;45.822;16.092;2022-11-15T10:41:58;34.55;;;14.63;;
66585;SDS011;53444;45.822;16.092;2022-11-15T10:44:42;34.87;;;14.87;;
66585;SDS011;53444;45.822;16.092;2022-11-15T10:47:24;31.98;;;15.68;;
66585;SDS011;53444;45.822;16.092;2022-11-15T10:50:00;33.63;;;16.05;;
66585;SDS011;53444;45.822;16.092;2022-11-15T10:52:30;31.85;;;14.50;;
66585;SDS011;53444;45.822;16.092;2022-11-15T10:55:00;31.05;;;14.30;;
66585;SDS011;53444;45.822;16.092;2022-11-15T10:57:30;29.80;;;14.07;;
66585;SDS011;53444;45.822;16.092;2022-11-15T11:00:00;32.00;;;15.40;;
66585;SDS011;53444;45.822;16.092;2022-11-15T11:02:32;31.30;;;14.93;;
66585;SDS011;53444;45.822;16.092;2022-11-15T11:05:01;27.77;;;13.05;;
66585;SDS011;53444;45.822;16.092;2022-11-15T11:07:30;30.08;;;15.13;;
66585;SDS011;53444;45.822;16.092;2022-11-15T11:10:01;34.42;;;14.68;;
66585;SDS011;53444;45.822;16.092;2022-11-15T11:12:33;30.20;;;14.75;;
66585;SDS011;53444;45.822;16.092;2022-11-15T11:15:00;26.15;;;13.70;;
66585;SDS011;53444;45.822;16.092;2022-11-15T11:17:39;33.28;;;15.18;;
66585;SDS011;53444;45.822;16.092;2022-11-15T11:20:18;30.20;;;15.13;;
66585;SDS011;53444;45.822;16.092;2022-11-15T11:22:56;23.30;;;12.65;;
66585;SDS011;53444;45.822;16.092;2022-11-15T11:25:31;24.38;;;12.30;;
66585;SDS011;53444;45.822;16.092;2022-11-15T11:28:14;28.92;;;14.27;;
66585;SDS011;53444;45.822;16.092;2022-11-15T11:30:52;25.92;;;12.73;;
66585;SDS011;53444;45.822;16.092;2022-11-15T11:33:31;28.08;;;15.15;;
66585;SDS011;53444;45.822;16.092;2022-11-15T11:36:03;30.93;;;15.93;;
66585;SDS011;53444;45.822;16.092;2022-11-15T11:38:44;30.50;;;13.98;;
66585;SDS011;53444;45.822;16.092;2022-11-15T11:41:23;28.55;;;15.07;;
66585;SDS011;53444;45.822;16.092;2022-11-15T11:44:10;31.42;;;14.77;;
66585;SDS011;53444;45.822;16.092;2022-11-15T11:46:47;27.63;;;14.80;;
66585;SDS011;53444;45.822;16.092;2022-11-15T11:49:18;32.40;;;15.45;;
66585;SDS011;53444;45.822;16.092;2022-11-15T11:51:51;32.95;;;15.65;;
66585;SDS011;53444;45.822;16.092;2022-11-15T11:54:22;22.33;;;12.00;;
66585;SDS011;53444;45.822;16.092;2022-11-15T11:56:55;31.55;;;15.43;;
66585;SDS011;53444;45.822;16.092;2022-11-15T11:59:27;32.75;;;16.58;;
66585;SDS011;53444;45.822;16.092;2022-11-15T12:02:01;28.15;;;15.32;;
66585;SDS011;53444;45.822;16.092;2022-11-15T12:04:38;31.52;;;15.60;;
66585;SDS011;53444;45.822;16.092;2022-11-15T12:07:08;33.28;;;17.63;;
66585;SDS011;53444;45.822;16.092;2022-11-15T12:09:41;31.13;;;15.98;;
66585;SDS011;53444;45.822;16.092;2022-11-15T12:12:13;31.45;;;16.55;;
66585;SDS011;53444;45.822;16.092;2022-11-15T12:14:45;31.00;;;17.13;;
66585;SDS011;53444;45.822;16.092;2022-11-15T12:17:16;28.63;;;14.40;;
66585;SDS011;53444;45.822;16.092;2022-11-15T12:19:47;23.00;;;12.38;;
66585;SDS011;53444;45.822;16.092;2022-11-15T12:22:16;26.73;;;13.90;;
66585;SDS011;53444;45.822;16.092;2022-11-15T12:24:48;20.10;;;11.80;;
66585;SDS011;53444;45.822;16.092;2022-11-15T12:27:20;23.85;;;12.55;;
66585;SDS011;53444;45.822;16.092;2022-11-15T12:29:54;26.35;;;13.55;;
66585;SDS011;53444;45.822;16.092;2022-11-15T12:32:25;31.42;;;15.55;;
66585;SDS011;53444;45.822;16.092;2022-11-15T12:34:55;30.98;;;15.40;;
66585;SDS011;53444;45.822;16.092;2022-11-15T12:40:24;27.08;;;13.23;;
66585;SDS011;53444;45.822;16.092;2022-11-15T12:42:57;26.00;;;13.60;;
66585;SDS011;53444;45.822;16.092;2022-11-15T12:45:30;32.17;;;16.00;;
66585;SDS011;53444;45.822;16.092;2022-11-15T12:51:04;33.45;;;16.08;;
66585;SDS011;53444;45.822;16.092;2022-11-15T12:53:31;30.30;;;15.85;;
66585;SDS011;53444;45.822;16.092;2022-11-15T12:56:09;30.52;;;15.88;;
66585;SDS011;53444;45.822;16.092;2022-11-15T12:58:45;30.58;;;15.52;;
66585;SDS011;53444;45.822;16.092;2022-11-15T13:04:21;26.38;;;13.73;;
66585;SDS011;53444;45.822;16.092;2022-11-15T13:06:53;26.38;;;13.90;;
66585;SDS011;53444;45.822;16.092;2022-11-15T13:20:57;27.63;;;13.73;;
66585;SDS011;53444;45.822;16.092;2022-11-15T13:23:26;36.10;;;16.92;;
66585;SDS011;53444;45.822;16.092;2022-11-15T13:26:06;33.53;;;16.25;;
66585;SDS011;53444;45.822;16.092;2022-11-15T13:28:37;26.77;;;12.77;;
66585;SDS011;53444;45.822;16.092;2022-11-15T13:31:17;29.38;;;14.15;;
66585;SDS011;53444;45.822;16.092;2022-11-15T13:33:49;27.63;;;13.93;;
66585;SDS011;53444;45.822;16.092;2022-11-15T13:36:18;28.58;;;14.85;;
66585;SDS011;53444;45.822;16.092;2022-11-15T13:38:55;29.02;;;14.27;;
66585;SDS011;53444;45.822;16.092;2022-11-15T13:41:24;27.63;;;13.35;;
66585;SDS011;53444;45.822;16.092;2022-11-15T13:43:52;27.38;;;13.52;;
66585;SDS011;53444;45.822;16.092;2022-11-15T13:46:20;28.50;;;13.60;;
66585;SDS011;53444;45.822;16.092;2022-11-15T13:48:51;28.65;;;13.50;;
66585;SDS011;53444;45.822;16.092;2022-11-15T13:51:20;25.98;;;14.05;;
66585;SDS011;53444;45.822;16.092;2022-11-15T13:53:51;26.10;;;13.65;;
66585;SDS011;53444;45.822;16.092;2022-11-15T13:56:23;31.27;;;14.95;;
66585;SDS011;53444;45.822;16.092;2022-11-15T13:58:52;28.20;;;14.27;;
66585;SDS011;53444;45.822;16.092;2022-11-15T14:01:20;29.55;;;13.70;;
66585;SDS011;53444;45.822;16.092;2022-11-15T14:03:49;33.13;;;15.90;;
66585;SDS011;53444;45.822;16.092;2022-11-15T14:06:20;29.38;;;14.25;;
66585;SDS011;53444;45.822;16.092;2022-11-15T14:08:58;27.63;;;14.65;;
66585;SDS011;53444;45.822;16.092;2022-11-15T14:11:28;28.73;;;14.85;;
66585;SDS011;53444;45.822;16.092;2022-11-15T14:14:00;29.73;;;14.68;;
66585;SDS011;53444;45.822;16.092;2022-11-15T14:16:33;29.90;;;14.48;;
66585;SDS011;53444;45.822;16.092;2022-11-15T14:19:01;33.97;;;16.40;;
66585;SDS011;53444;45.822;16.092;2022-11-15T14:21:28;37.72;;;17.23;;
66585;SDS011;53444;45.822;16.092;2022-11-15T14:26:41;25.40;;;13.73;;
66585;SDS011;53444;45.822;16.092;2022-11-15T14:29:21;30.90;;;15.07;;
66585;SDS011;53444;45.822;16.092;2022-11-15T14:31:48;28.05;;;14.68;;
66585;SDS011;53444;45.822;16.092;2022-11-15T14:34:15;25.58;;;13.32;;
66585;SDS011;53444;45.822;16.092;2022-11-15T14:36:42;28.13;;;14.43;;
66585;SDS011;53444;45.822;16.092;2022-11-15T14:39:08;30.42;;;14.88;;
66585;SDS011;53444;45.822;16.092;2022-11-15T14:41:35;31.65;;;14.88;;
66585;SDS011;53444;45.822;16.092;2022-11-15T14:44:04;29.15;;;15.75;;
66585;SDS011;53444;45.822;16.092;2022-11-15T14:46:31;31.45;;;16.48;;
66585;SDS011;53444;45.822;16.092;2022-11-15T14:48:58;29.23;;;16.50;;
66585;SDS011;53444;45.822;16.092;2022-11-15T14:51:25;35.00;;;16.63;;
66585;SDS011;53444;45.822;16.092;2022-11-15T14:53:52;32.38;;;15.95;;